createdAt,value
2023-01-13T00:00:47.186Z,97310.91
2023-01-13T00:03:13.541Z,97312.47
2023-01-13T00:05:39.917Z,97304.25
2023-01-13T00:08:06.495Z,97294.59
2023-01-13T00:10:34.010Z,97291.88
2023-01-13T00:13:01.938Z,97289.94
2023-01-13T00:15:28.456Z,97287.22
2023-01-13T00:17:54.791Z,97295.78
2023-01-13T00:20:21.138Z,97282.53
2023-01-13T00:22:47.463Z,97286.34
2023-01-13T00:25:13.744Z,97290.34
2023-01-13T00:27:40.144Z,97280.63
2023-01-13T00:30:07.431Z,97275.56
2023-01-13T00:32:33.864Z,97273.22
2023-01-13T00:35:00.171Z,97262.72
2023-01-13T00:37:27.232Z,97262.34
2023-01-13T00:39:53.644Z,97266.22
2023-01-13T00:42:38.716Z,97271.28
2023-01-13T00:45:05.709Z,97272.41
2023-01-13T00:47:32.010Z,97260.72
2023-01-13T00:49:58.346Z,97270.78
2023-01-13T00:52:24.662Z,97264.16
2023-01-13T00:54:50.949Z,97260.63
2023-01-13T00:57:17.293Z,97251.69
2023-01-13T00:59:43.564Z,97252.81
2023-01-13T01:02:10.609Z,97237.25
2023-01-13T01:04:36.925Z,97228.63
2023-01-13T01:07:03.230Z,97237.22
2023-01-13T01:09:32.667Z,97226.66
2023-01-13T01:12:00.540Z,97227.81
2023-01-13T01:14:27.434Z,97223.91
2023-01-13T01:16:54.433Z,97223.13
2023-01-13T01:19:20.713Z,97216.09
2023-01-13T01:21:47.070Z,97222.31
2023-01-13T01:24:13.355Z,97223.84
2023-01-13T01:26:41.722Z,97213.72
2023-01-13T01:29:11.920Z,97211.56
2023-01-13T01:31:38.249Z,97223.81
2023-01-13T01:34:04.561Z,97229.22
2023-01-13T01:36:30.996Z,97224.47
2023-01-13T01:38:59.114Z,97230.72
2023-01-13T01:41:28.870Z,97235.38
2023-01-13T01:43:59.025Z,97221.69
2023-01-13T01:46:41.529Z,97219.78
2023-01-13T01:49:29.266Z,97221.28
2023-01-13T01:52:06.677Z,97223.63
2023-01-13T01:54:46.845Z,97222.81
2023-01-13T01:57:19.635Z,97220.91
2023-01-13T01:59:46.211Z,97211.97
2023-01-13T02:02:12.881Z,97212.31
2023-01-13T02:04:43.083Z,97213.88
2023-01-13T02:07:09.441Z,97213.41
2023-01-13T02:09:36.527Z,97200.16
2023-01-13T02:12:21.395Z,97210.25
2023-01-13T02:14:47.849Z,97196.97
2023-01-13T02:17:35.904Z,97190.72
2023-01-13T02:20:27.110Z,97183.69
2023-01-13T02:23:36.597Z,97172.38
2023-01-13T02:26:35.605Z,97173.09
2023-01-13T02:29:52.137Z,97167.22
2023-01-13T02:32:35.645Z,97179.28
2023-01-13T02:35:01.897Z,97171.13
2023-01-13T02:37:32.808Z,97174.97
2023-01-13T02:40:05.837Z,97171.47
2023-01-13T02:42:53.053Z,97164.47
2023-01-13T02:45:26.066Z,97169.56
2023-01-13T02:47:55.728Z,97167.97
2023-01-13T02:50:48.621Z,97153.22
2023-01-13T02:53:21.731Z,97168.81
2023-01-13T02:55:51.436Z,97174.16
2023-01-13T02:58:22.452Z,97157.75
2023-01-13T03:00:49.320Z,97167.47
2023-01-13T03:03:15.723Z,97162.81
2023-01-13T03:05:44.760Z,97160.06
2023-01-13T03:08:43.156Z,97159.31
2023-01-13T03:11:12.803Z,97166.28
2023-01-13T03:14:10.818Z,97152.31
2023-01-13T03:17:11.186Z,97156.94
2023-01-13T03:19:46.606Z,97152.38
2023-01-13T03:22:38.212Z,97150.38
2023-01-13T03:25:15.355Z,97148.84
2023-01-13T03:27:50.509Z,97149.31
2023-01-13T03:30:42.607Z,97148.06
2023-01-13T03:33:15.686Z,97145.13
2023-01-13T03:35:45.894Z,97129.88
2023-01-13T03:38:20.091Z,97131.44
2023-01-13T03:40:59.864Z,97134.22
2023-01-13T03:43:55.525Z,97135.38
2023-01-13T03:46:29.415Z,97131.44
2023-01-13T03:48:59.508Z,97131.47
2023-01-13T03:51:30.928Z,97129.47
2023-01-13T03:54:04.562Z,97128.28
2023-01-13T03:56:42.754Z,97121.69
2023-01-13T03:59:14.353Z,97125.13
2023-01-13T04:02:03.646Z,97126.31
2023-01-13T04:04:34.594Z,97119.31
2023-01-13T04:07:31.518Z,97121.25
2023-01-13T04:10:01.985Z,97112.59
2023-01-13T04:12:49.423Z,97114.56
2023-01-13T04:15:18.236Z,97110.97
2023-01-13T04:17:44.604Z,97107.88
2023-01-13T04:20:11.375Z,97105.56
2023-01-13T04:22:37.776Z,97118.41
2023-01-13T04:25:04.895Z,97116.84
2023-01-13T04:27:31.258Z,97113.28
2023-01-13T04:29:57.708Z,97122.53
2023-01-13T04:32:24.072Z,97121.06
2023-01-13T04:34:50.495Z,97122.50
2023-01-13T04:37:16.788Z,97120.66
2023-01-13T04:39:43.121Z,97121.38
2023-01-13T04:42:09.538Z,97113.91
2023-01-13T04:44:36.045Z,97116.28
2023-01-13T04:47:02.662Z,97114.69
2023-01-13T04:49:28.950Z,97108.09
2023-01-13T04:51:55.428Z,97117.00
2023-01-13T04:54:21.797Z,97115.81
2023-01-13T04:56:48.135Z,97118.53
2023-01-13T04:59:14.779Z,97117.00
2023-01-13T05:01:41.349Z,97126.97
2023-01-13T05:04:08.113Z,97121.53
2023-01-13T05:06:34.532Z,97120.00
2023-01-13T05:09:00.842Z,97117.97
2023-01-13T05:11:45.660Z,97111.31
2023-01-13T05:14:34.920Z,97114.06
2023-01-13T05:17:01.741Z,97105.88
2023-01-13T05:19:28.827Z,97110.19
2023-01-13T05:22:13.841Z,97112.16
2023-01-13T05:24:59.564Z,97115.63
2023-01-13T05:27:26.255Z,97115.97
2023-01-13T05:29:52.837Z,97113.34
2023-01-13T05:32:19.377Z,97109.69
2023-01-13T05:34:45.785Z,97115.25
2023-01-13T05:37:13.177Z,97115.97
2023-01-13T05:39:59.659Z,97112.13
2023-01-13T05:42:45.036Z,97108.91
2023-01-13T05:45:12.472Z,97108.97
2023-01-13T05:47:39.035Z,97109.34
2023-01-13T05:50:05.564Z,97107.31
2023-01-13T05:52:32.203Z,97104.94
2023-01-13T05:54:58.605Z,97106.13
2023-01-13T05:57:25.055Z,97111.97
2023-01-13T05:59:51.420Z,97113.13
2023-01-13T06:02:17.800Z,97113.53
2023-01-13T06:04:45.258Z,97117.03
2023-01-13T06:07:12.425Z,97109.56
2023-01-13T06:09:38.832Z,97111.97
2023-01-13T06:12:05.555Z,97118.22
2023-01-13T06:14:40.903Z,97122.06
2023-01-13T06:17:08.829Z,97123.69
2023-01-13T06:19:35.384Z,97122.44
2023-01-13T06:22:16.667Z,97124.31
2023-01-13T06:24:45.877Z,97117.28
2023-01-13T06:27:12.872Z,97113.38
2023-01-13T06:29:39.251Z,97116.88
2023-01-13T06:32:11.278Z,97119.59
2023-01-13T06:34:38.285Z,97118.41
2023-01-13T06:37:05.237Z,97127.38
2023-01-13T06:39:31.953Z,97123.38
2023-01-13T06:42:17.838Z,97117.13
2023-01-13T06:44:45.517Z,97125.31
2023-01-13T06:47:15.635Z,97130.28
2023-01-13T06:49:41.999Z,97123.28
2023-01-13T06:52:08.280Z,97118.84
2023-01-13T06:54:34.732Z,97114.16
2023-01-13T06:57:01.907Z,97121.50
2023-01-13T06:59:29.892Z,97123.88
2023-01-13T07:01:57.156Z,97127.31
2023-01-13T07:04:23.977Z,97114.31
2023-01-13T07:06:50.437Z,97114.84
2023-01-13T07:09:16.951Z,97122.63
2023-01-13T07:11:43.543Z,97111.31
2023-01-13T07:14:28.499Z,97121.81
2023-01-13T07:16:54.952Z,97113.47
2023-01-13T07:19:23.899Z,97112.69
2023-01-13T07:21:53.464Z,97116.63
2023-01-13T07:24:20.116Z,97117.88
2023-01-13T07:26:46.470Z,97117.53
2023-01-13T07:29:13.094Z,97109.19
2023-01-13T07:31:39.876Z,97108.91
2023-01-13T07:34:09.589Z,97104.94
2023-01-13T07:36:36.480Z,97108.00
2023-01-13T07:39:03.269Z,97106.88
2023-01-13T07:41:50.939Z,97105.22
2023-01-13T07:44:17.379Z,97106.44
2023-01-13T07:46:43.849Z,97113.44
2023-01-13T07:49:10.351Z,97119.66
2023-01-13T07:51:38.815Z,97117.22
2023-01-13T07:54:05.743Z,97120.44
2023-01-13T07:56:32.545Z,97121.00
2023-01-13T07:59:00.497Z,97127.78
2023-01-13T08:01:27.954Z,97127.75
2023-01-13T08:03:56.132Z,97137.81
2023-01-13T08:06:22.491Z,97140.59
2023-01-13T08:08:48.888Z,97133.59
2023-01-13T08:11:15.392Z,97152.31
2023-01-13T08:13:41.707Z,97149.19
2023-01-13T08:16:10.588Z,97151.53
2023-01-13T08:18:38.241Z,97165.56
2023-01-13T08:21:07.794Z,97159.34
2023-01-13T08:23:34.359Z,97161.69
2023-01-13T08:26:02.656Z,97161.56
2023-01-13T08:28:29.550Z,97161.50
2023-01-13T08:30:59.683Z,97148.34
2023-01-13T08:33:26.289Z,97154.31
2023-01-13T08:35:53.226Z,97149.22
2023-01-13T08:38:20.275Z,97154.16
2023-01-13T08:40:46.612Z,97148.25
2023-01-13T08:43:13.040Z,97141.22
2023-01-13T08:45:39.351Z,97148.22
2023-01-13T08:48:06.021Z,97149.09
2023-01-13T08:50:32.493Z,97149.41
2023-01-13T08:52:58.843Z,97153.59
2023-01-13T08:55:25.173Z,97149.25
2023-01-13T08:57:52.121Z,97151.19
2023-01-13T09:00:19.847Z,97155.91
2023-01-13T09:02:46.213Z,97145.72
2023-01-13T09:05:12.630Z,97143.34
2023-01-13T09:07:39.085Z,97143.56
2023-01-13T09:10:07.234Z,97148.06
2023-01-13T09:12:51.901Z,97162.16
2023-01-13T09:15:21.683Z,97178.28
2023-01-13T09:17:48.183Z,97178.09
2023-01-13T09:20:14.763Z,97173.03
2023-01-13T09:22:41.353Z,97169.16
2023-01-13T09:25:08.621Z,97175.69
2023-01-13T09:27:34.975Z,97182.41
2023-01-13T09:30:01.429Z,97183.13
2023-01-13T09:32:27.819Z,97174.44
2023-01-13T09:35:00.366Z,97183.59
2023-01-13T09:37:39.245Z,97180.84
2023-01-13T09:40:12.202Z,97176.31
2023-01-13T09:43:19.551Z,97166.38
2023-01-13T09:45:58.771Z,97150.84
2023-01-13T09:48:32.309Z,97151.38
2023-01-13T09:51:02.608Z,97147.53
2023-01-13T09:53:33.011Z,97148.31
2023-01-13T09:56:00.052Z,97154.75
2023-01-13T09:58:27.090Z,97143.78
2023-01-13T10:00:53.462Z,97136.94
2023-01-13T10:03:29.271Z,97160.81
2023-01-13T10:06:21.411Z,97145.78
2023-01-13T10:08:49.359Z,97143.63
2023-01-13T10:11:42.884Z,97134.66
2023-01-13T10:14:30.836Z,97127.28
2023-01-13T10:17:26.345Z,97139.19
2023-01-13T10:20:05.199Z,97132.50
2023-01-13T10:22:49.618Z,97119.56
2023-01-13T10:25:41.621Z,97122.22
2023-01-13T10:28:13.778Z,97142.50
2023-01-13T10:30:43.580Z,97133.78
2023-01-13T10:33:34.175Z,97136.78
2023-01-13T10:36:36.359Z,97134.63
2023-01-13T10:39:32.387Z,97113.41
2023-01-13T10:42:08.026Z,97130.88
2023-01-13T10:44:56.391Z,97112.81
2023-01-13T10:47:38.491Z,97111.28
2023-01-13T10:50:11.483Z,97117.66
2023-01-13T10:52:43.247Z,97105.69
2023-01-13T10:55:36.750Z,97113.25
2023-01-13T10:58:24.364Z,97119.75
2023-01-13T11:04:28.940Z,97131.91
2023-01-13T11:06:59.798Z,97122.44
2023-01-13T11:09:31.042Z,97121.41
2023-01-13T11:12:03.801Z,97126.94
2023-01-13T11:14:57.489Z,97140.69
2023-01-13T11:17:44.531Z,97136.06
2023-01-13T11:20:31.484Z,97142.53
2023-01-13T11:23:01.986Z,97142.09
2023-01-13T11:25:48.323Z,97148.75
2023-01-13T11:28:42.137Z,97158.50
2023-01-13T11:31:45.836Z,97162.19
2023-01-13T11:34:37.809Z,97162.13
2023-01-13T11:37:26.823Z,97163.84
2023-01-13T11:40:14.770Z,97167.22
2023-01-13T11:43:05.391Z,97165.75
2023-01-13T11:45:48.655Z,97168.06
2023-01-13T11:48:26.312Z,97175.72
2023-01-13T11:51:34.188Z,97177.25
2023-01-13T11:54:29.656Z,97173.53
2023-01-13T11:57:12.830Z,97177.31
2023-01-13T12:00:14.347Z,97174.50
2023-01-13T12:03:26.288Z,97174.50
2023-01-13T12:06:31.123Z,97161.66
2023-01-13T12:09:33.365Z,97174.66
2023-01-13T12:13:00.898Z,97161.09
2023-01-13T12:16:20.272Z,97158.75
2023-01-13T12:19:20.825Z,97161.66
2023-01-13T12:22:36.000Z,97156.38
2023-01-13T12:25:45.014Z,97158.75
2023-01-13T12:28:21.062Z,97170.06
2023-01-13T12:33:51.452Z,97187.22
2023-01-13T12:36:52.372Z,97188.28
2023-01-13T12:39:56.813Z,97186.69
2023-01-13T12:45:48.652Z,97178.81
2023-01-13T12:48:57.357Z,97188.13
2023-01-13T12:51:37.009Z,97192.38
2023-01-13T12:54:37.516Z,97200.22
2023-01-13T12:57:25.534Z,97191.88
2023-01-13T13:00:04.115Z,97198.50
2023-01-13T13:02:38.494Z,97189.03
2023-01-13T13:05:23.324Z,97194.75
2023-01-13T13:08:00.919Z,97198.84
2023-01-13T13:10:33.816Z,97195.69
2023-01-13T13:13:20.660Z,97200.69
2023-01-13T13:15:49.560Z,97208.38
2023-01-13T13:18:20.461Z,97211.38
2023-01-13T13:21:09.643Z,97214.69
2023-01-13T13:24:04.843Z,97216.41
2023-01-13T13:26:38.382Z,97221.09
2023-01-13T13:29:29.904Z,97226.53
2023-01-13T13:32:25.899Z,97239.06
2023-01-13T13:35:16.057Z,97226.59
2023-01-13T13:38:13.766Z,97234.50
2023-01-13T13:41:03.083Z,97238.41
2023-01-13T13:43:55.507Z,97256.34
2023-01-13T13:46:45.190Z,97251.56
2023-01-13T13:49:13.217Z,97254.78
2023-01-13T13:51:54.281Z,97259.16
2023-01-13T13:54:22.744Z,97264.16
2023-01-13T13:56:50.661Z,97276.19
2023-01-13T13:59:23.852Z,97271.16
2023-01-13T14:02:01.316Z,97279.44
2023-01-13T14:04:33.386Z,97293.84
2023-01-13T14:07:04.325Z,97299.69
2023-01-13T14:09:41.320Z,97293.81
2023-01-13T14:12:17.766Z,97284.88
2023-01-13T14:14:45.639Z,97281.38
2023-01-13T14:17:20.266Z,97276.34
2023-01-13T14:19:53.375Z,97283.00
2023-01-13T14:22:20.317Z,97292.28
2023-01-13T14:24:49.382Z,97302.91
2023-01-13T14:27:18.389Z,97303.34
2023-01-13T14:29:45.214Z,97316.56
2023-01-13T14:32:19.829Z,97323.63
2023-01-13T14:34:46.986Z,97329.06
2023-01-13T14:37:28.736Z,97322.56
2023-01-13T14:39:55.529Z,97328.84
2023-01-13T14:42:22.211Z,97320.63
2023-01-13T14:44:50.604Z,97294.06
2023-01-13T14:47:22.997Z,97299.91
2023-01-13T14:50:00.568Z,97306.53
2023-01-13T14:52:29.747Z,97287.28
2023-01-13T14:54:58.953Z,97307.94
2023-01-13T14:57:39.840Z,97319.78
2023-01-13T15:00:15.119Z,97338.03
2023-01-13T15:02:58.368Z,97348.50
2023-01-13T15:05:27.794Z,97343.91
2023-01-13T17:39:30.897Z,97596.50
2023-01-13T17:41:57.422Z,97593.06
2023-01-13T17:44:23.965Z,97590.66
2023-01-13T17:46:50.829Z,97591.41
2023-01-13T17:49:19.645Z,97596.06
2023-01-13T17:51:48.334Z,97594.81
2023-01-13T17:54:15.217Z,97593.25
2023-01-13T17:56:42.539Z,97587.03
2023-01-13T17:59:11.260Z,97590.94
2023-01-13T18:01:38.675Z,97587.88
2023-01-13T18:04:06.657Z,97585.53
2023-01-13T18:06:33.788Z,97582.38
2023-01-13T18:09:00.517Z,97582.81
2023-01-13T18:11:27.423Z,97593.22
2023-01-13T18:13:56.625Z,97587.03
2023-01-13T18:16:25.273Z,97596.34
2023-01-13T18:19:19.576Z,97601.44
2023-01-13T18:22:05.734Z,97598.72
2023-01-13T18:24:51.357Z,97597.94
2023-01-13T18:27:23.933Z,97603.38
2023-01-13T18:29:52.903Z,97601.81
2023-01-13T18:32:20.240Z,97604.88
2023-01-13T18:34:47.945Z,97609.53
2023-01-13T18:37:16.385Z,97609.91
2023-01-13T18:39:42.926Z,97602.53
2023-01-13T18:42:29.141Z,97605.56
2023-01-13T18:44:57.951Z,97621.84
2023-01-13T18:47:29.358Z,97621.00
2023-01-13T18:49:56.949Z,97639.94
2023-01-13T18:52:24.471Z,97628.28
2023-01-13T18:54:51.199Z,97632.53
2023-01-13T18:57:17.911Z,97647.25
2023-01-13T18:59:44.360Z,97633.31
2023-01-13T19:02:15.330Z,97632.09
2023-01-13T19:04:42.294Z,97623.84
2023-01-13T19:07:12.123Z,97634.69
2023-01-13T19:09:39.487Z,97644.09
2023-01-13T19:12:10.023Z,97647.16
2023-01-13T19:14:37.807Z,97652.13
2023-01-13T19:17:06.627Z,97657.84
2023-01-13T19:19:33.226Z,97656.28
2023-01-13T19:21:59.544Z,97650.88
2023-01-13T19:24:26.275Z,97661.78
2023-01-13T19:26:54.656Z,97674.78
2023-01-13T19:29:21.755Z,97673.31
2023-01-13T19:31:48.374Z,97677.97
2023-01-13T19:34:15.461Z,97682.59
2023-01-13T19:36:42.278Z,97691.06
2023-01-13T19:39:09.988Z,97700.34
2023-01-13T19:41:55.366Z,97708.06
2023-01-13T19:44:40.293Z,97716.03
2023-01-13T19:47:06.720Z,97720.69
2023-01-13T19:49:33.618Z,97721.94
2023-01-13T19:52:00.111Z,97718.47
2023-01-13T19:54:26.766Z,97722.75
2023-01-13T19:56:53.392Z,97721.63
2023-01-13T19:59:22.117Z,97720.09
2023-01-13T20:01:48.793Z,97725.25
2023-01-13T20:04:17.158Z,97724.09
2023-01-13T20:06:44.305Z,97729.22
2023-01-13T20:09:11.460Z,97721.06
2023-01-13T20:11:37.835Z,97726.13
2023-01-13T20:14:04.407Z,97718.78
2023-01-13T20:16:33.200Z,97727.75
2023-01-13T20:18:59.642Z,97733.59
2023-01-13T20:21:26.568Z,97740.56
2023-01-13T20:23:53.280Z,97739.81
2023-01-13T20:26:20.434Z,97746.06
2023-01-13T20:28:47.551Z,97750.66
2023-01-13T20:31:14.972Z,97741.38
2023-01-13T20:33:42.142Z,97742.97
2023-01-13T20:36:15.916Z,97748.41
2023-01-13T20:38:42.458Z,97762.38
2023-01-13T20:41:27.590Z,97755.41
2023-01-13T20:43:54.437Z,97753.13
2023-01-13T20:46:22.619Z,97756.22
2023-01-13T20:48:49.025Z,97760.13
2023-01-13T20:51:15.553Z,97763.28
2023-01-13T20:53:42.024Z,97769.50
2023-01-13T20:56:09.114Z,97776.94
2023-01-13T20:58:38.263Z,97775.03
2023-01-13T21:01:04.998Z,97772.69
2023-01-13T21:03:31.609Z,97779.75
2023-01-13T21:05:58.483Z,97789.03
2023-01-13T21:08:25.007Z,97786.34
2023-01-13T21:10:51.554Z,97794.50
2023-01-13T21:13:36.731Z,97799.91
2023-01-13T21:16:03.568Z,97800.34
2023-01-13T21:18:48.596Z,97794.03
2023-01-13T21:21:15.683Z,97799.06
2023-01-13T21:23:47.223Z,97795.19
2023-01-13T21:26:15.673Z,97790.56
2023-01-13T21:28:42.254Z,97793.63
2023-01-13T21:31:09.438Z,97790.53
2023-01-13T21:33:36.644Z,97789.31
2023-01-13T21:36:08.350Z,97797.09
2023-01-13T21:38:35.724Z,97804.88
2023-01-13T21:41:07.114Z,97804.44
2023-01-13T21:43:53.406Z,97809.16
2023-01-13T21:46:39.645Z,97808.38
2023-01-13T21:49:06.566Z,97808.38
2023-01-13T21:51:35.390Z,97818.84
2023-01-13T21:54:01.965Z,97821.53
2023-01-13T21:56:28.471Z,97827.78
2023-01-13T21:58:57.887Z,97837.03
2023-01-13T22:01:25.398Z,97842.41
2023-01-13T22:04:10.596Z,97845.06
2023-01-13T22:06:37.243Z,97852.41
2023-01-13T22:09:03.763Z,97862.88
2023-01-13T22:11:32.193Z,97859.31
2023-01-13T22:14:11.046Z,97860.88
2023-01-13T22:16:48.597Z,97868.59
2023-01-13T22:19:15.084Z,97872.41
2023-01-13T22:21:41.933Z,97864.19
2023-01-13T22:24:09.497Z,97865.81
2023-01-13T22:26:36.092Z,97868.41
2023-01-13T22:29:02.635Z,97865.31
2023-01-13T22:31:31.365Z,97869.13
2023-01-13T22:33:58.017Z,97872.25
2023-01-13T22:36:24.654Z,97875.00
2023-01-13T22:38:56.387Z,97866.91
2023-01-13T22:41:23.259Z,97869.63
2023-01-13T22:43:49.843Z,97868.91
2023-01-13T22:46:17.139Z,97867.31
2023-01-13T22:48:44.238Z,97866.91
2023-01-13T22:51:13.050Z,97878.47
2023-01-13T22:53:40.513Z,97875.00
2023-01-13T22:56:15.145Z,97881.94
2023-01-13T22:58:41.708Z,97883.41
2023-01-13T23:01:10.817Z,97883.06
2023-01-13T23:03:37.557Z,97890.84
2023-01-13T23:06:04.718Z,97887.34
2023-01-13T23:08:31.380Z,97890.06
2023-01-13T23:11:07.080Z,97891.56
2023-01-13T23:13:34.028Z,97888.13
2023-01-13T23:16:14.546Z,97896.25
2023-01-13T23:18:42.769Z,97897.84
2023-01-13T23:21:12.595Z,97900.28
2023-01-13T23:23:39.615Z,97901.03
2023-01-13T23:26:07.290Z,97900.69
2023-01-13T23:28:35.492Z,97902.59
2023-01-13T23:31:10.271Z,97903.00
2023-01-13T23:33:41.171Z,97909.97
2023-01-13T23:36:12.976Z,97905.72
2023-01-13T23:38:40.493Z,97894.75
2023-01-13T23:41:09.018Z,97889.75
2023-01-13T23:43:35.959Z,97892.41
2023-01-13T23:46:04.775Z,97891.25
2023-01-13T23:48:32.886Z,97885.69
2023-01-13T23:51:01.019Z,97886.78
2023-01-13T23:53:33.593Z,97887.91
2023-01-13T23:56:01.819Z,97888.28
2023-01-13T23:58:29.763Z,97898.88
